x

West Superior - 30nm Ne Of Outer Island, Wi (45006) Wave Buoy

8:50am - Tue 23rd May 2017 All times are CDT. -5 hours from GMT.

  • Sig Wave height 0.3ft
  • Average Period 3s
  • Wind
    9mph, 9mph gusts
  • Sea Temp 37°f
  • Air Temp 40°f
  • Sea Pressure 1012.3mb
  • West Superior - 30nm Ne Of Outer Island, Wi
  • West Superior - 30nm Ne Of Outer Island, Wi

More Historic Weather Station data

Upgrade to MSW Pro to gain access to the past 30 days of data for over 8000 Wavebouys and Weather Stations around the globe.

Join Pro

Comparision Forecast

View Surf forecast
   
Tue 05/23 8:50am 0.3ft  -  3s 9 9 mph 1012.3mb 37f 40f
7:50am 0.3ft  -  3s 11 11 mph 1011.7mb 37f 41f
6:50am 0.3ft  -  3s 11 11 mph 1011mb 37f 41f
5:50am 0.3ft  -  3s 4 7 mph 1010.9mb 36f 40f
4:50am 0.3ft  -  3s 4 4 mph 1010.3mb 37f 40f
3:50am 0.3ft  -  3s 2 2 mph 1010.1mb 37f 41f
2:50am 0.7ft  -  3s 4 4 mph 1010.2mb 37f 40f
1:50am 0.7ft  -  3s 4 4 mph 1010.3mb 37f 40f
12:50am 0.7ft  -  3s 4 4 mph 1010.2mb 37f 41f
Mon 05/22 11:50pm 0.7ft  -  3s 4 4 mph 1010.6mb 37f 41f
10:50pm 1ft 4s 3s 4 7 mph 1010.5mb 37f 40f
9:50pm 1.3ft 4s 4s 4 7 mph 1010.6mb 37f 40f
8:50pm 1.3ft 4s 3s 7 7 mph 1010.2mb 37f 40f
7:50pm 1.3ft 4s 3s 9 11 mph 1009.7mb 37f 41f
6:50pm 1.6ft 4s 3s 9 11 mph 1009.5mb 37f 41f
5:50pm 1.6ft 4s 3s 13 16 mph 1009.1mb 37f 42f
4:50pm 1.6ft 4s 3s 13 16 mph 1008.7mb 37f 43f
3:50pm 2ft 4s 3s 13 16 mph 1008.4mb 37f 42f
2:50pm 2ft 3s 3s 13 16 mph 1008mb 37f 42f
1:50pm 2ft 4s 4s 18 20 mph 1007.7mb 37f 42f
12:50pm 2ft 4s 4s 13 13 mph 1007.9mb 37f 41f
11:50am 2ft 5s 4s 11 13 mph 1007.6mb 37f 40f
10:50am 2.5ft 5s 4s 13 13 mph 1007.3mb 37f 40f
8:50am 2.5ft 5s 4s 13 13 mph 1007.3mb 37f 40f
7:50am 2.5ft 4s 4s 16 18 mph 1007.2mb 37f 41f
6:50am 2.5ft 4s 4s 18 20 mph 1007mb 37f 41f
5:50am 2.5ft 4s 4s 18 20 mph 1006.7mb 37f 40f
4:50am 2ft 3s 3s 18 20 mph 1006.5mb 37f 41f
3:50am 1.3ft 3s 3s 18 20 mph 1006.5mb 37f 40f
2:50am 1.3ft 5s 3s 11 13 mph 1006.8mb 37f 40f
1:50am 1.3ft 6s 4s 13 16 mph 1007mb 37f 40f
12:50am 1.6ft 6s 4s 9 11 mph 1007.1mb 37f 39f
Sun 05/21 11:50pm 1.6ft 6s 4s 11 13 mph 1007.2mb 37f 39f
10:50pm 1.6ft 6s 5s 9 11 mph 1007.8mb 37f 38f
9:50pm 1.6ft 6s 5s 11 13 mph 1008mb 37f 38f
8:50pm 1.6ft 5s 4s 7 7 mph 1007.9mb 37f 38f
7:50pm 1.6ft 5s 4s 7 7 mph 1007.8mb 37f 38f
6:50pm 1.6ft 5s 4s 7 9 mph 1007.6mb 37f 38f
5:50pm 2ft 5s 4s 4 7 mph 1007.6mb 37f 38f
4:50pm 2ft 5s 4s 4 7 mph 1007.6mb 37f 38f
3:50pm 2ft 5s 4s 7 9 mph 1007.4mb 37f 38f
2:50pm 2.5ft 6s 4s 9 11 mph 1007.7mb 37f 38f
1:50pm 2.5ft 5s 4s 7 9 mph 1007.9mb 37f 38f
12:50pm 2.5ft 4s 4s 9 11 mph 1008.2mb 37f 39f
11:50am 2.5ft 5s 4s 13 13 mph 1008.5mb 37f 39f
10:50am 2.5ft 5s 4s 16 18 mph 1008.7mb 37f 39f
9:50am 2.5ft 5s 4s 13 16 mph 1009.6mb 37f 39f
8:50am 2.5ft 5s  -  16 18 mph 1010.1mb 37f 39f
7:50am 2.5ft 5s 4s 16 18 mph 1010.9mb 37f 39f
6:50am 2.5ft 5s 4s 11 16 mph 1012.2mb 37f 39f
5:50am 2.5ft 5s 4s 16 18 mph 1012.2mb 37f 39f
4:50am 2.5ft 4s 4s 16 18 mph 1012.6mb 37f 39f
3:50am 2.5ft 4s 3s 18 20 mph 1013mb 37f 39f
2:50am 2.5ft 5s 3s 16 20 mph 1014.3mb 37f 39f
1:50am 2.5ft 4s  -  18 22 mph 1015mb 37f 39f
12:50am 3ft 5s 4s 18 20 mph 1015.9mb 37f 38f
Sat 05/20 11:50pm 3ft 5s 4s 16 18 mph 1016.8mb 37f 39f
10:50pm 3ft 5s  -  18 20 mph 1017.6mb 37f 39f
9:50pm 3.5ft 5s  -  18 20 mph 1018.5mb 37f 40f
8:50pm 4ft 6s 4s 18 20 mph 1018.5mb 37f 40f
7:50pm 4ft 5s 4s 20 22 mph 1018.5mb 37f 40f
6:50pm 3.5ft 5s 4s 20 25 mph 1018.3mb 37f 40f
5:50pm 4.5ft 6s 4s 25 29 mph 1019.6mb 37f 40f
4:50pm 5ft 5s 5s 22 27 mph 1021.1mb 37f 39f
3:50pm 4.5ft 5s 4s 25 29 mph 1021.7mb 37f 39f
2:50pm 4.5ft 5s 4s 25 29 mph 1022.5mb 37f 39f
1:50pm 3.5ft 4s 4s 22 27 mph 1022.8mb 37f 39f
12:50pm 3ft 4s 4s 20 25 mph 1023.7mb 37f 40f
11:50am 2.5ft 4s 3s 20 22 mph 1024.5mb 37f 40f
10:50am 2.5ft 4s 3s 20 22 mph 1025.4mb 37f 40f
9:50am 1.6ft 4s 3s 16 20 mph 1026.6mb 37f 39f
8:50am 1.6ft 3s 3s 16 18 mph 1026.8mb 37f 39f
7:50am 1.3ft 3s 3s 16 18 mph 1027.2mb 37f 39f
6:50am 0.7ft  -  2s 13 16 mph 1027.3mb 37f 39f
5:50am 0.3ft  -  3s 11 13 mph 1028mb 37f 39f
4:50am 0.3ft  -  3s 9 11 mph 1027.7mb 37f 39f
3:50am 0.3ft  -  3s 7 9 mph 1027.9mb 37f 39f
2:50am 0.3ft  -  3s 7 7 mph 1027.7mb 37f 39f
1:50am 0.3ft  -  3s 9 11 mph 1027.7mb 37f 39f
12:50am 0.3ft  -  4s 11 11 mph 1027.8mb 37f 39f
Fri 05/19 11:50pm 0.3ft  -  4s 9 9 mph 1027.8mb 37f 38f
10:50pm 0.3ft  -  4s 7 9 mph 1028.3mb 37f 39f
9:50pm 0.3ft  -  4s 4 7 mph 1028.4mb 37f 39f
8:50pm 0.3ft  -  4s 7 7 mph 1027.8mb 37f 39f
7:50pm 0.3ft  -  4s 7 9 mph 1027.5mb 37f 39f
6:50pm 0.3ft  -  4s 4 7 mph 1028.1mb 37f 38f
5:50pm 0.7ft  -  4s 4 4 mph 1027.9mb 37f 39f
4:50pm 0.7ft  -  4s 4 7 mph 1028.5mb 37f 39f
3:50pm 0.7ft  -  4s 7 7 mph 1028.3mb 37f 39f
2:50pm 0.7ft  -  4s 4 4 mph 1028.5mb 37f 39f